Time;durP1;ratioP1;P1;durP2;ratioP2;P2;SDS_P1;SDS_P2;PMS_P1;PMS_P2;Temp;Humidity;BMP_temperature;BMP_pressure;BME280_temperature;BME280_humidity;BME280_pressure;Samples;Min_cycle;Max_cycle;Signal;HPM_P1;HPM_P2
2022/09/12 00:02:16;;;;;;;0.00;0.00;;;21.80;73.60;;;;;;4166960;28;20792;-64
2022/09/12 00:05:04;;;;;;;0.25;0.25;;;21.70;73.40;;;;;;4161260;28;20137;-64
2022/09/12 00:07:45;;;;;;;0.73;0.73;;;21.70;73.40;;;;;;4151960;28;20485;-64
2022/09/12 00:10:25;;;;;;;0.00;0.00;;;21.70;73.40;;;;;;4158471;28;20590;-64
2022/09/12 00:13:06;;;;;;;0.00;0.00;;;21.70;73.40;;;;;;4160746;28;20100;-64
2022/09/12 00:15:49;;;;;;;0.00;0.00;;;21.70;73.50;;;;;;4173650;28;20052;-64
2022/09/12 00:18:34;;;;;;;0.20;0.20;;;21.70;73.50;;;;;;4175712;28;20380;-64
2022/09/12 00:21:17;;;;;;;0.00;0.00;;;21.70;73.40;;;;;;4159056;28;20061;-64
2022/09/12 00:23:58;;;;;;;0.10;0.10;;;21.70;73.40;;;;;;4167777;28;20162;-64
2022/09/12 00:26:44;;;;;;;0.00;0.00;;;21.70;73.40;;;;;;4175833;28;20616;-64
2022/09/12 00:29:25;;;;;;;0.00;0.00;;;21.70;73.40;;;;;;4176118;28;20420;-65
2022/09/12 00:32:09;;;;;;;0.00;0.00;;;21.70;73.30;;;;;;4161280;28;20057;-65
2022/09/12 00:34:50;;;;;;;0.00;0.00;;;21.70;73.30;;;;;;4160526;28;20506;-64
2022/09/12 00:37:34;;;;;;;0.00;0.00;;;21.70;73.30;;;;;;4160163;28;20076;-65
2022/09/12 00:40:15;;;;;;;0.00;0.00;;;21.70;73.20;;;;;;4143419;28;20057;-65
2022/09/12 00:42:59;;;;;;;;;;;21.70;73.40;;;;;;4143503;28;20145;-64
2022/09/12 00:45:41;;;;;;;0.10;0.10;;;21.70;73.30;;;;;;4159450;28;20018;-65
2022/09/12 00:48:29;;;;;;;0.10;0.10;;;21.60;73.20;;;;;;4159460;28;20056;-65
2022/09/12 00:51:10;;;;;;;0.47;0.47;;;21.60;73.20;;;;;;4158437;28;20118;-64
2022/09/12 00:53:54;;;;;;;0.10;0.10;;;21.60;73.20;;;;;;4169135;28;20123;-64
2022/09/12 00:56:36;;;;;;;0.05;0.05;;;21.60;73.20;;;;;;4160490;28;20064;-65
2022/09/12 00:59:21;;;;;;;0.20;0.20;;;21.60;73.30;;;;;;4176117;28;20788;-65
2022/09/12 01:02:03;;;;;;;0.03;0.03;;;21.60;73.30;;;;;;4176369;28;20048;-65
2022/09/12 01:04:46;;;;;;;0.00;0.00;;;21.60;73.20;;;;;;4176651;28;20067;-64
2022/09/12 01:07:27;;;;;;;0.00;0.00;;;21.60;73.20;;;;;;4176608;28;20060;-64
2022/09/12 01:10:09;;;;;;;0.10;0.10;;;21.60;73.10;;;;;;4176833;28;20071;-65
2022/09/12 01:12:50;;;;;;;0.00;0.00;;;21.60;73.10;;;;;;4160226;28;20080;-66
2022/09/12 01:15:31;;;;;;;0.00;0.00;;;21.60;73.10;;;;;;4143561;28;20064;-65
2022/09/12 01:18:21;;;;;;;0.00;0.00;;;21.60;73.10;;;;;;4143807;28;20179;-66
2022/09/12 01:21:18;;;;;;;1.55;1.45;;;21.60;73.10;;;;;;4143868;28;20378;-65
2022/09/12 01:24:33;;;;;;;0.00;0.00;;;21.60;73.10;;;;;;4168787;28;20126;-64
2022/09/12 01:27:33;;;;;;;0.00;0.00;;;21.60;73.00;;;;;;4174890;28;20051;-64
2022/09/12 01:30:39;;;;;;;0.00;0.00;;;21.50;73.00;;;;;;4176457;28;20060;-65
2022/09/12 01:33:46;;;;;;;0.00;0.00;;;21.50;73.00;;;;;;4144175;28;20065;-65
2022/09/12 01:36:38;;;;;;;0.30;0.22;;;21.50;73.00;;;;;;4159624;28;20048;-65
2022/09/12 01:39:30;;;;;;;0.22;0.22;;;21.50;73.00;;;;;;4159505;28;20152;-64
2022/09/12 01:42:20;;;;;;;0.00;0.00;;;21.50;73.00;;;;;;4145108;28;20049;-65
2022/09/12 01:45:09;;;;;;;0.00;0.00;;;21.50;73.00;;;;;;4158688;28;20187;-66
2022/09/12 01:47:56;;;;;;;0.00;0.00;;;21.50;73.00;;;;;;4155856;28;20056;-65
2022/09/12 01:50:44;;;;;;;0.00;0.00;;;21.50;73.00;;;;;;4143438;28;20503;-65
2022/09/12 01:53:28;;;;;;;0.00;0.00;;;21.50;73.00;;;;;;4147211;28;20056;-65
2022/09/12 01:56:13;;;;;;;1.00;0.93;;;21.40;72.90;;;;;;4174512;28;20499;-65
2022/09/12 01:58:59;;;;;;;0.00;0.00;;;21.40;72.90;;;;;;4175688;28;20110;-65
2022/09/12 02:01:45;;;;;;;0.00;0.00;;;21.40;72.90;;;;;;4175637;28;20491;-65
2022/09/12 02:04:30;;;;;;;0.00;0.00;;;21.40;73.00;;;;;;4160878;28;20381;-65
2022/09/12 02:07:19;;;;;;;0.00;0.00;;;21.40;72.90;;;;;;4159317;28;20131;-65
2022/09/12 02:10:07;;;;;;;0.20;0.20;;;21.40;72.90;;;;;;4159467;28;20512;-64
2022/09/12 02:12:53;;;;;;;0.00;0.00;;;21.40;72.90;;;;;;4159387;28;20120;-65
2022/09/12 02:15:37;;;;;;;0.20;0.20;;;21.40;73.00;;;;;;4159762;28;20068;-64
2022/09/12 02:18:20;;;;;;;0.10;0.10;;;21.30;72.80;;;;;;4158874;28;20132;-64
2022/09/12 02:21:05;;;;;;;0.00;0.00;;;21.30;72.90;;;;;;4159148;28;20053;-64
2022/09/12 02:23:56;;;;;;;0.00;0.00;;;21.40;72.90;;;;;;4167013;28;20146;-64
2022/09/12 02:26:43;;;;;;;0.00;0.00;;;21.30;72.80;;;;;;4175594;28;20122;-64
2022/09/12 02:29:24;;;;;;;0.03;0.03;;;21.40;72.90;;;;;;4173808;28;20052;-64
2022/09/12 02:32:12;;;;;;;0.00;0.00;;;21.30;72.80;;;;;;4175138;28;20070;-65
2022/09/12 02:34:59;;;;;;;0.00;0.00;;;21.30;72.80;;;;;;4173371;28;20143;-65
2022/09/12 02:37:57;;;;;;;0.00;0.00;;;21.30;72.90;;;;;;4173700;28;20119;-65
2022/09/12 02:40:38;;;;;;;0.30;0.20;;;21.30;72.80;;;;;;4174995;28;20499;-65
2022/09/12 02:43:19;;;;;;;0.00;0.00;;;21.30;72.80;;;;;;4175500;28;20043;-64
2022/09/12 02:46:00;;;;;;;0.00;0.00;;;21.30;72.90;;;;;;4174325;28;20056;-65
2022/09/12 02:48:43;;;;;;;0.00;0.00;;;21.30;72.90;;;;;;4174458;28;20087;-65
2022/09/12 02:51:25;;;;;;;0.10;0.10;;;21.30;72.90;;;;;;4157085;28;20086;-65
2022/09/12 02:54:09;;;;;;;25.02;0.75;;;21.30;72.90;;;;;;4168051;28;20106;-65
2022/09/12 02:56:49;;;;;;;0.00;0.00;;;21.30;72.90;;;;;;4175151;28;20067;-65
2022/09/12 02:59:30;;;;;;;0.00;0.00;;;21.30;72.90;;;;;;4175097;28;20091;-65
2022/09/12 03:02:26;;;;;;;0.30;0.30;;;21.20;72.80;;;;;;4174994;28;20399;-65
2022/09/12 03:05:18;;;;;;;0.10;0.10;;;21.20;72.80;;;;;;4160317;28;20052;-65
2022/09/12 03:08:35;;;;;;;0.00;0.00;;;21.20;72.90;;;;;;4158558;28;20518;-64
2022/09/12 03:11:42;;;;;;;0.00;0.00;;;21.20;72.80;;;;;;4158308;28;20056;-64
2022/09/12 03:14:35;;;;;;;2.30;0.88;;;21.20;73.00;;;;;;4142253;28;20056;-64
2022/09/12 03:17:26;;;;;;;0.03;0.03;;;21.20;73.90;;;;;;4157387;28;20431;-65
2022/09/12 03:20:13;;;;;;;0.00;0.00;;;21.20;73.80;;;;;;4160945;28;20100;-64
2022/09/12 03:22:57;;;;;;;0.00;0.00;;;21.20;72.90;;;;;;4173338;28;20055;-64
2022/09/12 03:25:44;;;;;;;0.70;0.52;;;21.20;72.80;;;;;;4159926;28;20175;-64
2022/09/12 03:28:27;;;;;;;0.15;0.15;;;21.20;72.80;;;;;;4157974;28;20558;-64
2022/09/12 03:31:15;;;;;;;0.00;0.00;;;21.20;73.70;;;;;;4158618;28;20416;-65
2022/09/12 03:33:56;;;;;;;0.00;0.00;;;21.10;72.80;;;;;;4158518;28;20180;-65
2022/09/12 03:36:40;;;;;;;0.00;0.00;;;21.10;72.80;;;;;;4160046;28;20059;-65
2022/09/12 03:39:23;;;;;;;1.35;1.25;;;21.10;72.80;;;;;;4154501;28;20056;-65
2022/09/12 03:42:04;;;;;;;0.00;0.00;;;21.10;72.80;;;;;;4158098;28;20071;-65
2022/09/12 03:44:46;;;;;;;0.00;0.00;;;21.10;72.80;;;;;;4158355;28;20077;-65
2022/09/12 03:47:27;;;;;;;0.00;0.00;;;21.10;72.80;;;;;;4173194;28;20122;-65
2022/09/12 03:50:09;;;;;;;0.77;0.77;;;21.10;72.80;;;;;;4174461;28;20059;-65
2022/09/12 03:52:50;;;;;;;;;;;21.10;72.80;;;;;;4167927;28;20060;-65
2022/09/12 03:55:31;;;;;;;0.00;0.00;;;21.00;72.80;;;;;;4174447;28;19936;-65
2022/09/12 03:58:12;;;;;;;0.10;0.10;;;21.00;72.80;;;;;;4162073;28;20175;-65
2022/09/12 04:00:54;;;;;;;0.00;0.00;;;21.00;72.80;;;;;;4161036;28;20056;-65
2022/09/12 04:03:35;;;;;;;0.00;0.00;;;21.00;72.90;;;;;;4161163;28;20538;-65
2022/09/12 04:06:18;;;;;;;0.00;0.00;;;21.00;72.90;;;;;;4161020;28;20056;-65
2022/09/12 04:08:59;;;;;;;0.00;0.00;;;21.00;72.90;;;;;;4161326;28;20061;-65
2022/09/12 04:11:40;;;;;;;0.10;0.10;;;21.00;72.90;;;;;;4161333;28;20045;-65
2022/09/12 04:14:21;;;;;;;0.00;0.00;;;21.00;72.90;;;;;;4144897;28;20505;-65
2022/09/12 04:17:03;;;;;;;0.00;0.00;;;21.00;72.90;;;;;;4143990;28;20053;-65
2022/09/12 04:19:44;;;;;;;0.00;0.00;;;21.00;72.90;;;;;;4144559;28;20791;-65
2022/09/12 04:22:25;;;;;;;0.00;0.00;;;21.00;72.90;;;;;;4162964;28;20061;-65
2022/09/12 04:25:08;;;;;;;0.00;0.00;;;21.00;72.80;;;;;;4177549;28;20056;-65
2022/09/12 04:27:49;;;;;;;0.55;0.55;;;21.00;72.90;;;;;;4162306;28;20488;-65
2022/09/12 04:30:30;;;;;;;0.47;0.47;;;21.00;72.90;;;;;;4161120;28;20049;-65
2022/09/12 04:33:12;;;;;;;;;;;20.90;72.80;;;;;;4177949;28;20052;-65
2022/09/12 04:35:53;;;;;;;0.00;0.00;;;20.90;72.80;;;;;;4176175;28;19930;-65
2022/09/12 04:38:35;;;;;;;0.00;0.00;;;20.90;72.80;;;;;;4177673;28;20139;-65
2022/09/12 04:41:18;;;;;;;0.20;0.20;;;20.90;72.90;;;;;;4175610;28;20210;-65
2022/09/12 04:44:01;;;;;;;0.00;0.00;;;20.90;72.90;;;;;;4175846;28;20090;-65
2022/09/12 04:46:44;;;;;;;0.00;0.00;;;20.90;72.90;;;;;;4176448;28;20126;-65
2022/09/12 04:49:26;;;;;;;0.77;0.77;;;20.90;72.90;;;;;;4175806;28;20179;-66
2022/09/12 04:52:07;;;;;;;0.93;0.85;;;20.90;73.00;;;;;;4177218;28;20168;-65
2022/09/12 04:54:48;;;;;;;0.20;0.20;;;20.90;73.00;;;;;;4176943;28;20056;-65
2022/09/12 04:57:28;;;;;;;0.00;0.00;;;20.90;72.90;;;;;;4168593;28;20052;-65
2022/09/12 05:00:13;;;;;;;;;;;20.90;72.90;;;;;;4161182;28;20055;-66
2022/09/12 05:02:53;;;;;;;0.00;0.00;;;20.90;72.90;;;;;;4160084;28;19928;-65
2022/09/12 05:05:36;;;;;;;2.13;0.63;;;20.90;72.90;;;;;;4160340;28;20055;-65
2022/09/12 05:08:17;;;;;;;0.90;0.90;;;20.90;73.00;;;;;;4174216;28;20059;-64
2022/09/12 05:11:03;;;;;;;0.00;0.00;;;20.90;73.20;;;;;;4175550;28;20125;-65
2022/09/12 05:13:45;;;;;;;0.05;0.05;;;20.90;73.30;;;;;;4175140;28;20059;-65
2022/09/12 05:16:27;;;;;;;0.10;0.10;;;20.90;74.10;;;;;;4176794;28;20131;-65
2022/09/12 05:19:10;;;;;;;0.00;0.00;;;20.90;73.30;;;;;;4175599;28;20503;-65
2022/09/12 05:21:53;;;;;;;0.20;0.20;;;20.90;73.20;;;;;;4161576;28;20065;-65
2022/09/12 05:24:34;;;;;;;7.32;0.65;;;20.90;73.20;;;;;;4176817;28;20404;-64
2022/09/12 05:27:15;;;;;;;0.03;0.03;;;20.90;73.20;;;;;;4176844;28;20055;-64
2022/09/12 05:29:56;;;;;;;0.08;0.08;;;20.90;73.20;;;;;;4175851;28;20562;-64
2022/09/12 05:32:37;;;;;;;0.38;0.38;;;20.90;73.20;;;;;;4159876;28;20087;-64
2022/09/12 05:35:18;;;;;;;0.00;0.00;;;20.90;73.40;;;;;;4161311;28;20515;-64
2022/09/12 05:38:01;;;;;;;0.00;0.00;;;20.90;73.60;;;;;;4176409;28;20047;-65
2022/09/12 05:40:41;;;;;;;0.00;0.00;;;20.90;73.80;;;;;;4176532;28;20400;-63
2022/09/12 05:43:23;;;;;;;0.65;0.65;;;20.90;74.50;;;;;;4159506;28;20507;-62
2022/09/12 05:46:06;;;;;;;0.55;0.55;;;20.90;74.10;;;;;;4159645;28;20052;-69
2022/09/12 05:48:49;;;;;;;0.75;0.75;;;21.00;74.10;;;;;;4159565;28;20065;-68
2022/09/12 05:51:36;;;;;;;0.10;0.10;;;21.00;74.00;;;;;;4141872;28;20746;-65
2022/09/12 05:54:20;;;;;;;0.50;0.50;;;21.00;73.90;;;;;;4160006;28;20053;-64
2022/09/12 05:57:00;;;;;;;0.00;0.00;;;21.00;73.80;;;;;;4159189;28;20523;-64
2022/09/12 05:59:42;;;;;;;1.35;0.80;;;21.00;73.80;;;;;;4159595;28;20492;-64
2022/09/12 06:02:23;;;;;;;0.00;0.00;;;21.00;73.80;;;;;;4176069;28;20052;-64
2022/09/12 06:05:05;;;;;;;0.03;0.03;;;21.00;73.80;;;;;;4175235;28;20048;-64
2022/09/12 06:07:46;;;;;;;0.60;0.60;;;20.90;73.90;;;;;;4175227;28;20091;-65
2022/09/12 06:10:28;;;;;;;1.42;0.28;;;20.90;73.80;;;;;;4151079;28;20053;-65
2022/09/12 06:13:09;;;;;;;0.70;0.70;;;20.90;73.90;;;;;;4172423;28;20070;-66
2022/09/12 06:15:50;;;;;;;0.10;0.10;;;21.00;73.90;;;;;;4172231;28;20091;-65
2022/09/12 06:18:31;;;;;;;0.00;0.00;;;20.90;73.90;;;;;;4173258;28;20055;-65
2022/09/12 06:21:12;;;;;;;;;;;20.90;74.10;;;;;;4173370;28;20181;-65
2022/09/12 06:23:55;;;;;;;0.00;0.00;;;20.90;74.00;;;;;;4172063;28;20362;-65
2022/09/12 06:26:38;;;;;;;0.10;0.10;;;20.90;74.10;;;;;;4156874;28;20064;-65
2022/09/12 06:29:19;;;;;;;0.05;0.05;;;20.90;74.10;;;;;;4156203;28;20641;-66
2022/09/12 06:32:01;;;;;;;0.32;0.32;;;20.90;74.10;;;;;;4148490;28;20068;-65
2022/09/12 06:34:47;;;;;;;0.08;0.08;;;20.90;74.20;;;;;;4172593;28;20068;-66
2022/09/12 06:37:27;;;;;;;0.15;0.15;;;20.90;74.30;;;;;;4172564;28;20048;-65
2022/09/12 06:40:11;;;;;;;0.10;0.10;;;20.90;74.30;;;;;;4166397;28;20052;-66
2022/09/12 06:42:53;;;;;;;0.03;0.03;;;20.90;74.40;;;;;;4171440;28;20522;-67
2022/09/12 06:45:49;;;;;;;0.00;0.00;;;20.90;74.40;;;;;;4155787;28;20158;-67
2022/09/12 06:48:30;;;;;;;0.05;0.05;;;20.90;74.50;;;;;;4172791;28;20404;-67
2022/09/12 06:51:13;;;;;;;0.00;0.00;;;20.90;74.60;;;;;;4165683;28;20103;-67
2022/09/12 06:53:56;;;;;;;0.10;0.10;;;20.90;74.60;;;;;;4156129;28;20049;-67
2022/09/12 06:56:37;;;;;;;0.43;0.30;;;20.90;74.60;;;;;;4155515;28;20052;-67
2022/09/12 06:59:20;;;;;;;0.00;0.00;;;20.90;74.70;;;;;;4167564;28;20125;-68
2022/09/12 07:02:01;;;;;;;2.03;1.55;;;20.90;74.70;;;;;;4156137;28;20060;-67
2022/09/12 07:04:42;;;;;;;0.73;0.73;;;20.90;74.70;;;;;;4148536;28;20057;-67
2022/09/12 07:07:23;;;;;;;0.20;0.20;;;20.90;74.70;;;;;;4170063;28;20468;-68
2022/09/12 07:10:05;;;;;;;0.32;0.32;;;20.90;75.60;;;;;;4172531;28;20056;-68
2022/09/12 07:12:47;;;;;;;1.30;1.20;;;20.80;74.70;;;;;;4163506;28;20491;-68
2022/09/12 07:15:30;;;;;;;1.02;1.02;;;20.90;74.90;;;;;;4155623;28;20048;-68
2022/09/12 07:18:11;;;;;;;0.00;0.00;;;20.90;74.90;;;;;;4155810;28;20049;-68
2022/09/12 07:20:53;;;;;;;0.22;0.22;;;20.80;74.90;;;;;;4155910;28;20064;-62
2022/09/12 07:23:34;;;;;;;0.73;0.73;;;20.90;75.40;;;;;;4155893;28;20045;-62
2022/09/12 07:26:16;;;;;;;1.58;0.95;;;20.90;75.70;;;;;;4156324;28;20053;-62
2022/09/12 07:28:58;;;;;;;0.73;0.73;;;20.90;75.70;;;;;;4156097;28;20053;-61
2022/09/12 07:32:00;;;;;;;;;;;20.90;75.90;;;;;;4173613;28;20051;-62
2022/09/12 07:34:41;;;;;;;0.00;0.00;;;20.90;75.80;;;;;;4160523;28;19959;-61
2022/09/12 07:37:22;;;;;;;2.47;2.38;;;20.90;76.00;;;;;;4159481;28;20072;-62
2022/09/12 07:40:04;;;;;;;0.30;0.30;;;20.90;76.20;;;;;;4161560;28;20131;-62
2022/09/12 07:42:46;;;;;;;0.10;0.10;;;20.90;76.30;;;;;;4168721;28;20506;-62
2022/09/12 07:45:27;;;;;;;0.32;0.32;;;20.90;76.30;;;;;;4158871;28;20056;-62
2022/09/12 07:48:10;;;;;;;0.00;0.00;;;20.90;76.30;;;;;;4173919;28;20126;-62
2022/09/12 07:50:58;;;;;;;0.60;0.60;;;20.90;76.40;;;;;;4175654;28;20064;-65
2022/09/12 07:53:42;;;;;;;0.10;0.10;;;20.90;76.60;;;;;;4165254;28;20075;-65
2022/09/12 07:56:23;;;;;;;0.88;0.88;;;20.90;76.80;;;;;;4159014;28;20166;-66
2022/09/12 07:59:09;;;;;;;0.08;0.08;;;20.90;76.90;;;;;;4159081;28;20104;-66
2022/09/12 08:01:50;;;;;;;0.28;0.28;;;21.00;77.20;;;;;;4158801;28;20195;-56
2022/09/12 08:04:32;;;;;;;0.13;0.13;;;20.90;77.10;;;;;;4159254;28;20146;-62
2022/09/12 08:07:13;;;;;;;0.40;0.40;;;20.90;77.30;;;;;;4158973;28;20056;-61
2022/09/12 08:09:54;;;;;;;0.85;0.85;;;20.90;77.40;;;;;;4173940;28;20066;-62
2022/09/12 08:12:35;;;;;;;0.35;0.35;;;20.90;77.40;;;;;;4175488;28;20494;-63
2022/09/12 08:15:16;;;;;;;0.00;0.00;;;20.90;77.50;;;;;;4163704;28;20126;-62
2022/09/12 08:17:57;;;;;;;0.60;0.60;;;21.00;77.50;;;;;;4159001;28;20212;-62
2022/09/12 08:20:39;;;;;;;0.73;0.73;;;21.00;77.50;;;;;;4159059;28;20079;-62
2022/09/12 08:23:22;;;;;;;0.47;0.47;;;21.00;77.40;;;;;;4172303;28;20060;-62
2022/09/12 08:26:05;;;;;;;0.00;0.00;;;21.00;77.40;;;;;;4174224;28;20203;-62
2022/09/12 08:28:46;;;;;;;0.32;0.32;;;21.00;77.30;;;;;;4173827;28;20078;-62
2022/09/12 08:31:28;;;;;;;0.32;0.32;;;21.00;77.20;;;;;;4159404;28;20060;-62
2022/09/12 08:34:09;;;;;;;2.67;1.55;;;21.00;77.10;;;;;;4158114;28;20052;-62
2022/09/12 08:36:53;;;;;;;;;;;21.00;76.80;;;;;;4158147;28;20075;-62
2022/09/12 08:39:33;;;;;;;8.10;1.63;;;21.00;76.80;;;;;;4173452;28;20066;-62
2022/09/12 08:42:24;;;;;;;1.17;1.17;;;21.00;76.80;;;;;;4157529;28;20184;-62
2022/09/12 08:45:14;;;;;;;5.20;1.65;;;21.00;76.80;;;;;;4157726;28;20052;-62
2022/09/12 08:47:56;;;;;;;0.20;0.20;;;21.00;76.80;;;;;;4157127;28;20060;-62
2022/09/12 08:50:37;;;;;;;2.00;1.38;;;21.00;76.80;;;;;;4158649;28;20079;-62
2022/09/12 08:53:24;;;;;;;1.15;1.15;;;21.00;76.70;;;;;;4156657;28;20056;-62
2022/09/12 08:56:07;;;;;;;0.68;0.68;;;21.00;76.70;;;;;;4153736;28;20404;-62
2022/09/12 08:58:48;;;;;;;4.00;0.70;;;21.00;76.60;;;;;;4173377;28;20490;-62
2022/09/12 09:01:32;;;;;;;0.68;0.68;;;21.10;76.60;;;;;;4174233;28;20083;-62
2022/09/12 09:04:36;;;;;;;0.15;0.15;;;21.10;76.60;;;;;;4174518;28;20056;-62
2022/09/12 09:07:33;;;;;;;0.05;0.05;;;21.10;76.70;;;;;;4174210;28;20059;-62
2022/09/12 09:10:24;;;;;;;0.47;0.47;;;21.10;77.00;;;;;;4173834;28;20733;-63
2022/09/12 09:14:46;;;;;;;0.25;0.25;;;21.10;76.90;;;;;;4174084;28;20052;-63
2022/09/12 09:16:24;;;;;;;5.15;1.67;;;21.10;76.70;;;;;;4174001;28;20110;-62
2022/09/12 09:19:11;;;;;;;0.15;0.15;;;21.20;76.90;;;;;;4159374;28;20057;-62
2022/09/12 09:21:57;;;;;;;0.38;0.38;;;21.20;76.80;;;;;;4157910;28;20134;-62
2022/09/12 09:24:44;;;;;;;0.30;0.30;;;21.20;77.10;;;;;;4157055;28;20127;-62
2022/09/12 09:27:31;;;;;;;1.55;0.40;;;21.20;77.10;;;;;;4156243;28;20056;-63
2022/09/12 09:30:21;;;;;;;0.55;0.55;;;21.20;77.10;;;;;;4157875;28;20130;-62
2022/09/12 09:33:04;;;;;;;0.17;0.17;;;21.20;77.00;;;;;;4171282;28;20565;-62
2022/09/12 09:35:47;;;;;;;0.00;0.00;;;21.20;77.00;;;;;;4172455;28;20404;-62
2022/09/12 09:38:36;;;;;;;0.10;0.10;;;21.20;77.00;;;;;;4172585;28;20499;-62
2022/09/12 09:41:33;;;;;;;0.85;0.85;;;21.20;76.90;;;;;;4173567;28;20044;-63
2022/09/12 09:44:16;;;;;;;0.57;0.57;;;21.30;76.90;;;;;;4157941;28;20057;-62
2022/09/12 09:46:59;;;;;;;0.10;0.10;;;21.30;76.80;;;;;;4157347;28;20048;-62
2022/09/12 09:49:40;;;;;;;0.10;0.10;;;21.30;76.70;;;;;;4149633;28;20064;-67
2022/09/12 09:52:29;;;;;;;0.10;0.10;;;21.30;76.80;;;;;;4157684;28;20175;-65
2022/09/12 09:55:16;;;;;;;0.10;0.10;;;21.30;77.20;;;;;;4173049;28;20098;-66
2022/09/12 09:57:57;;;;;;;0.25;0.25;;;21.40;77.80;;;;;;4173389;28;20052;-66
2022/09/12 10:00:40;;;;;;;0.20;0.20;;;21.40;78.10;;;;;;4173447;28;20226;-66
2022/09/12 10:03:29;;;;;;;0.20;0.20;;;21.50;78.30;;;;;;4161174;28;20816;-66
2022/09/12 10:06:29;;;;;;;1.83;1.73;;;21.50;78.10;;;;;;4156950;28;20127;-64
2022/09/12 10:09:22;;;;;;;0.25;0.25;;;21.60;78.70;;;;;;4156727;28;20086;-64
2022/09/12 10:12:20;;;;;;;1.38;1.30;;;21.60;78.70;;;;;;4156258;28;20057;-63
2022/09/12 10:15:16;;;;;;;0.52;0.52;;;21.70;78.60;;;;;;4156707;28;20056;-64
2022/09/12 10:17:59;;;;;;;0.22;0.22;;;21.70;78.30;;;;;;4156308;28;20091;-63
2022/09/12 10:20:43;;;;;;;0.85;0.82;;;21.70;77.90;;;;;;4166172;28;20467;-63
2022/09/12 10:23:32;;;;;;;3.33;0.88;;;21.80;77.60;;;;;;4156016;28;20195;-63
2022/09/12 10:26:16;;;;;;;3.15;1.05;;;21.80;77.30;;;;;;4156461;28;20095;-63
2022/09/12 10:28:57;;;;;;;0.20;0.20;;;21.80;76.90;;;;;;4151896;28;20133;-63
2022/09/12 10:31:42;;;;;;;;;;;21.90;77.20;;;;;;4171154;28;20103;-63
2022/09/12 10:34:31;;;;;;;0.10;0.10;;;21.90;76.10;;;;;;4172874;28;19956;-63
2022/09/12 10:37:19;;;;;;;35.72;1.17;;;22.00;75.90;;;;;;4160292;28;20056;-63
2022/09/12 10:40:02;;;;;;;1.45;1.08;;;22.00;76.50;;;;;;4155600;28;20282;-63
2022/09/12 10:42:50;;;;;;;0.60;0.60;;;22.00;75.40;;;;;;4156419;28;20614;-64
2022/09/12 10:45:34;;;;;;;0.82;0.82;;;22.10;75.30;;;;;;4151338;28;20720;-64
2022/09/12 10:48:27;;;;;;;0.70;0.57;;;22.10;75.10;;;;;;4165106;28;20130;-64
2022/09/12 10:51:26;;;;;;;0.90;0.90;;;22.10;74.80;;;;;;4162329;28;20119;-64
2022/09/12 10:54:11;;;;;;;0.82;0.80;;;22.20;74.90;;;;;;4166255;28;20059;-64
2022/09/12 10:57:22;;;;;;;1.40;1.40;;;22.20;74.70;;;;;;4150666;28;20097;-64
2022/09/12 11:00:11;;;;;;;1.65;1.55;;;22.30;74.50;;;;;;4170636;28;20056;-64
2022/09/12 11:03:01;;;;;;;1.48;1.45;;;22.30;74.30;;;;;;4172682;28;20125;-63
2022/09/12 11:05:52;;;;;;;1.88;1.77;;;22.40;74.10;;;;;;4156304;28;20487;-63
2022/09/12 11:08:58;;;;;;;0.40;0.40;;;22.40;73.90;;;;;;4171991;28;20060;-63
2022/09/12 11:11:55;;;;;;;4.68;1.48;;;22.40;73.80;;;;;;4155266;28;20141;-64
2022/09/12 11:14:47;;;;;;;0.25;0.25;;;22.40;73.50;;;;;;4138748;28;20224;-64
2022/09/12 11:17:33;;;;;;;;;;;22.50;73.40;;;;;;4156115;28;20136;-64
2022/09/12 11:20:43;;;;;;;0.00;0.00;;;22.50;73.30;;;;;;4155660;28;20679;-61
2022/09/12 11:23:43;;;;;;;0.65;0.65;;;22.50;73.20;;;;;;4173723;28;20055;-63
2022/09/12 11:26:39;;;;;;;0.30;0.30;;;22.60;73.20;;;;;;4158420;28;20140;-63
2022/09/12 11:29:32;;;;;;;0.25;0.25;;;22.60;73.10;;;;;;4173951;28;20605;-63
2022/09/12 11:32:55;;;;;;;1.55;1.55;;;22.60;73.00;;;;;;4174108;28;20510;-62
2022/09/12 11:35:43;;;;;;;1.45;1.45;;;22.60;72.80;;;;;;4157486;28;20072;-64
2022/09/12 11:39:01;;;;;;;1.17;1.17;;;22.70;72.60;;;;;;4173078;28;20179;-63
2022/09/12 11:41:49;;;;;;;0.20;0.20;;;22.70;72.40;;;;;;4174253;28;20063;-63
2022/09/12 11:44:37;;;;;;;0.60;0.60;;;22.70;72.00;;;;;;4174408;28;20055;-63
2022/09/12 11:47:20;;;;;;;0.05;0.05;;;22.80;71.80;;;;;;4174997;28;20052;-63
2022/09/12 11:50:05;;;;;;;0.38;0.38;;;22.80;71.80;;;;;;4158899;28;20176;-62
2022/09/12 11:52:46;;;;;;;0.32;0.32;;;22.80;71.60;;;;;;4157799;28;20448;-63
2022/09/12 11:55:31;;;;;;;0.10;0.10;;;22.90;71.30;;;;;;4158230;28;20615;-63
2022/09/12 11:58:14;;;;;;;2.17;1.25;;;22.90;71.00;;;;;;4158078;28;20084;-63
2022/09/12 12:00:59;;;;;;;0.15;0.15;;;22.90;70.80;;;;;;4158212;28;20048;-62
2022/09/12 12:03:42;;;;;;;0.57;0.57;;;22.90;70.70;;;;;;4158183;28;20060;-62
2022/09/12 12:06:30;;;;;;;0.00;0.00;;;23.00;70.70;;;;;;4158150;28;20134;-61
2022/09/12 12:09:12;;;;;;;0.98;0.98;;;23.00;70.50;;;;;;4156890;28;20045;-62
2022/09/12 12:11:56;;;;;;;0.20;0.20;;;23.00;70.30;;;;;;4157980;28;20126;-62
2022/09/12 12:14:44;;;;;;;0.13;0.13;;;23.00;71.10;;;;;;4157683;28;20075;-62
2022/09/12 12:17:28;;;;;;;0.13;0.13;;;23.10;70.10;;;;;;4158030;28;20048;-62
2022/09/12 12:20:16;;;;;;;0.70;0.70;;;23.10;70.10;;;;;;4167485;28;20056;-62
2022/09/12 12:22:57;;;;;;;0.70;0.70;;;23.10;69.90;;;;;;4177000;28;20055;-62
2022/09/12 12:25:52;;;;;;;0.82;0.82;;;23.10;69.60;;;;;;4160728;28;20179;-62
2022/09/12 12:28:57;;;;;;;0.00;0.00;;;23.10;69.30;;;;;;4158586;28;20527;-63
2022/09/12 12:32:11;;;;;;;1.02;1.02;;;23.10;69.30;;;;;;4160415;28;20057;-62
2022/09/12 12:35:20;;;;;;;0.35;0.35;;;23.20;69.30;;;;;;4143995;28;20053;-62
2022/09/12 12:38:02;;;;;;;0.10;0.10;;;23.20;69.10;;;;;;4146782;28;20088;-62
2022/09/12 12:40:43;;;;;;;0.45;0.45;;;23.20;68.90;;;;;;4160330;28;20060;-62
2022/09/12 12:43:30;;;;;;;;;;;23.30;68.80;;;;;;4160264;28;20060;-62
2022/09/12 12:46:16;;;;;;;1.35;1.30;;;23.30;68.80;;;;;;4158969;28;19948;-62
2022/09/12 12:49:11;;;;;;;0.00;0.00;;;23.30;68.40;;;;;;4173690;28;20071;-62
2022/09/12 12:52:01;;;;;;;0.98;0.98;;;23.30;68.20;;;;;;4176599;28;20060;-62
2022/09/12 12:54:57;;;;;;;0.00;0.00;;;23.30;68.10;;;;;;4176743;28;20103;-62
2022/09/12 12:57:48;;;;;;;0.10;0.10;;;23.30;68.00;;;;;;4174439;28;20412;-62
2022/09/12 13:00:33;;;;;;;0.10;0.10;;;23.30;68.00;;;;;;4159036;28;20048;-62
2022/09/12 13:03:28;;;;;;;0.88;0.85;;;23.40;68.00;;;;;;4165208;28;22330;-62
2022/09/12 13:06:25;;;;;;;0.52;0.52;;;23.40;67.90;;;;;;4175206;28;20056;-62
2022/09/12 13:09:19;;;;;;;0.17;0.17;;;23.40;67.70;;;;;;4176479;28;20072;-62
2022/09/12 13:12:04;;;;;;;0.22;0.22;;;23.50;67.40;;;;;;4173516;28;20499;-61
2022/09/12 13:14:50;;;;;;;1.15;0.85;;;23.50;67.20;;;;;;4176261;28;20416;-61
2022/09/12 13:17:39;;;;;;;0.00;0.00;;;23.50;67.00;;;;;;4159325;28;20064;-63
2022/09/12 13:20:24;;;;;;;0.10;0.10;;;23.50;66.80;;;;;;4159616;28;20103;-62
2022/09/12 13:23:22;;;;;;;0.00;0.00;;;23.50;66.50;;;;;;4159858;28;20048;-62
2022/09/12 13:26:11;;;;;;;0.08;0.08;;;23.50;66.30;;;;;;4176321;28;20055;-62
2022/09/12 13:29:09;;;;;;;0.00;0.00;;;23.50;66.10;;;;;;4175294;28;20518;-62
2022/09/12 13:31:55;;;;;;;0.00;0.00;;;23.60;66.20;;;;;;4161595;28;20061;-62
2022/09/12 13:34:47;;;;;;;0.63;0.63;;;23.60;67.10;;;;;;4176382;28;20183;-62
2022/09/12 13:37:40;;;;;;;0.82;0.82;;;23.60;66.20;;;;;;4175953;28;20056;-62
2022/09/12 13:40:32;;;;;;;0.35;0.35;;;23.60;66.10;;;;;;4159570;28;20494;-63
2022/09/12 13:43:15;;;;;;;0.28;0.28;;;23.60;65.80;;;;;;4167835;28;20130;-63
2022/09/12 13:45:57;;;;;;;0.00;0.00;;;23.70;65.60;;;;;;4174948;28;20052;-63
2022/09/12 13:48:39;;;;;;;0.00;0.00;;;23.70;65.50;;;;;;4165765;28;20175;-63
2022/09/12 13:51:24;;;;;;;0.30;0.30;;;23.70;65.40;;;;;;4176026;28;20841;-63
2022/09/12 13:54:05;;;;;;;0.40;0.40;;;23.70;65.30;;;;;;4175872;28;20126;-63
2022/09/12 13:56:50;;;;;;;0.73;0.73;;;23.80;65.40;;;;;;4174716;28;20439;-63
2022/09/12 13:59:39;;;;;;;0.00;0.00;;;23.80;65.30;;;;;;4174729;28;20056;-63
2022/09/12 14:02:22;;;;;;;0.65;0.65;;;23.80;65.30;;;;;;4159326;28;20618;-63
2022/09/12 14:05:12;;;;;;;0.10;0.10;;;23.80;65.30;;;;;;4172119;28;20048;-61
2022/09/12 14:07:57;;;;;;;0.35;0.35;;;23.80;65.20;;;;;;4176069;28;20507;-61
2022/09/12 14:10:40;;;;;;;0.15;0.15;;;23.80;64.90;;;;;;4175372;28;20400;-61
2022/09/12 14:13:24;;;;;;;4.93;1.25;;;23.80;64.80;;;;;;4174893;28;20333;-61
2022/09/12 14:16:08;;;;;;;0.17;0.17;;;23.80;64.90;;;;;;4175783;28;20056;-61
2022/09/12 14:18:51;;;;;;;0.10;0.10;;;23.90;64.80;;;;;;4175658;28;20063;-61
2022/09/12 14:21:36;;;;;;;0.00;0.00;;;23.90;64.80;;;;;;4173890;28;20171;-61
2022/09/12 14:24:16;;;;;;;0.43;0.43;;;23.90;64.70;;;;;;4168576;28;20127;-61
2022/09/12 14:26:57;;;;;;;0.50;0.50;;;23.90;64.70;;;;;;4174084;28;20182;-62
2022/09/12 14:29:42;;;;;;;0.00;0.00;;;23.90;64.30;;;;;;4160599;28;20153;-62